sensor_id;sensor_type;location;lat;lon;timestamp;pressure;altitude;pressure_sealevel;temperature;humidity
16664;BME280;8445;51.270;9.434;2022-11-04T00:02:01;98029.50;;;12.63;71.42
16664;BME280;8445;51.270;9.434;2022-11-04T00:04:28;98035.97;;;12.68;71.04
16664;BME280;8445;51.270;9.434;2022-11-04T00:06:55;98042.13;;;12.69;71.75
16664;BME280;8445;51.270;9.434;2022-11-04T00:09:29;98043.78;;;12.70;73.11
16664;BME280;8445;51.270;9.434;2022-11-04T00:11:56;98036.81;;;12.69;72.01
16664;BME280;8445;51.270;9.434;2022-11-04T00:14:40;98045.91;;;12.74;72.79
16664;BME280;8445;51.270;9.434;2022-11-04T00:17:11;98045.09;;;12.74;72.39
16664;BME280;8445;51.270;9.434;2022-11-04T00:19:53;98046.09;;;12.73;75.85
16664;BME280;8445;51.270;9.434;2022-11-04T00:22:40;98051.75;;;12.78;72.03
16664;BME280;8445;51.270;9.434;2022-11-04T00:25:25;98045.25;;;12.72;73.29
16664;BME280;8445;51.270;9.434;2022-11-04T00:28:18;98050.88;;;12.69;75.88
16664;BME280;8445;51.270;9.434;2022-11-04T00:31:06;98048.91;;;12.71;73.16
16664;BME280;8445;51.270;9.434;2022-11-04T00:33:54;98070.78;;;12.73;75.78
16664;BME280;8445;51.270;9.434;2022-11-04T00:36:22;98079.94;;;12.71;74.30
16664;BME280;8445;51.270;9.434;2022-11-04T00:38:48;98084.06;;;12.73;73.11
16664;BME280;8445;51.270;9.434;2022-11-04T00:41:14;98076.28;;;12.72;73.65
16664;BME280;8445;51.270;9.434;2022-11-04T00:43:57;98080.75;;;12.71;73.59
16664;BME280;8445;51.270;9.434;2022-11-04T00:46:26;98084.56;;;12.69;73.45
16664;BME280;8445;51.270;9.434;2022-11-04T00:48:52;98084.72;;;12.67;73.48
16664;BME280;8445;51.270;9.434;2022-11-04T00:51:18;98099.81;;;12.67;73.84
16664;BME280;8445;51.270;9.434;2022-11-04T00:53:46;98109.44;;;12.68;73.00
16664;BME280;8445;51.270;9.434;2022-11-04T00:56:12;98105.78;;;12.69;72.46
16664;BME280;8445;51.270;9.434;2022-11-04T00:58:38;98101.78;;;12.65;72.41
16664;BME280;8445;51.270;9.434;2022-11-04T01:01:13;98117.72;;;12.65;73.35
16664;BME280;8445;51.270;9.434;2022-11-04T01:03:44;98111.25;;;12.59;72.93
16664;BME280;8445;51.270;9.434;2022-11-04T01:06:10;98115.34;;;12.53;72.39
16664;BME280;8445;51.270;9.434;2022-11-04T01:08:36;98118.19;;;12.52;72.45
16664;BME280;8445;51.270;9.434;2022-11-04T01:11:07;98120.16;;;12.50;75.15
16664;BME280;8445;51.270;9.434;2022-11-04T01:13:34;98133.25;;;12.51;73.60
16664;BME280;8445;51.270;9.434;2022-11-04T01:16:08;98141.88;;;12.53;74.91
16664;BME280;8445;51.270;9.434;2022-11-04T01:18:35;98143.03;;;12.51;72.83
16664;BME280;8445;51.270;9.434;2022-11-04T01:21:04;98144.69;;;12.52;73.44
16664;BME280;8445;51.270;9.434;2022-11-04T01:23:30;98140.53;;;12.49;73.13
16664;BME280;8445;51.270;9.434;2022-11-04T01:25:56;98137.56;;;12.52;72.81
16664;BME280;8445;51.270;9.434;2022-11-04T01:28:22;98135.75;;;12.53;72.63
16664;BME280;8445;51.270;9.434;2022-11-04T01:30:48;98137.25;;;12.55;73.20
16664;BME280;8445;51.270;9.434;2022-11-04T01:33:13;98126.13;;;12.52;73.36
16664;BME280;8445;51.270;9.434;2022-11-04T01:35:39;98136.25;;;12.56;73.24
16664;BME280;8445;51.270;9.434;2022-11-04T01:38:05;98126.63;;;12.55;73.48
16664;BME280;8445;51.270;9.434;2022-11-04T01:40:36;98140.22;;;12.52;72.81
16664;BME280;8445;51.270;9.434;2022-11-04T01:43:03;98138.88;;;12.48;72.96
16664;BME280;8445;51.270;9.434;2022-11-04T01:45:31;98131.41;;;12.43;72.89
16664;BME280;8445;51.270;9.434;2022-11-04T01:48:17;98129.91;;;12.49;73.41
16664;BME280;8445;51.270;9.434;2022-11-04T01:50:49;98129.41;;;12.45;72.75
16664;BME280;8445;51.270;9.434;2022-11-04T01:53:46;98118.50;;;12.49;75.79
16664;BME280;8445;51.270;9.434;2022-11-04T01:56:15;98109.34;;;12.43;73.74
16664;BME280;8445;51.270;9.434;2022-11-04T01:58:48;98122.28;;;12.46;73.53
16664;BME280;8445;51.270;9.434;2022-11-04T02:01:15;98136.53;;;12.45;73.05
16664;BME280;8445;51.270;9.434;2022-11-04T02:03:52;98141.53;;;12.48;75.36
16664;BME280;8445;51.270;9.434;2022-11-04T02:06:21;98137.53;;;12.44;73.38
16664;BME280;8445;51.270;9.434;2022-11-04T02:08:47;98140.19;;;12.44;74.75
16664;BME280;8445;51.270;9.434;2022-11-04T02:11:14;98133.53;;;12.40;74.09
16664;BME280;8445;51.270;9.434;2022-11-04T02:14:03;98135.50;;;12.38;73.59
16664;BME280;8445;51.270;9.434;2022-11-04T02:16:44;98139.50;;;12.42;75.07
16664;BME280;8445;51.270;9.434;2022-11-04T02:22:59;98149.75;;;12.28;73.92
16664;BME280;8445;51.270;9.434;2022-11-04T02:32:05;98163.53;;;12.06;77.04
16664;BME280;8445;51.270;9.434;2022-11-04T02:37:27;98172.38;;;11.96;73.62
16664;BME280;8445;51.270;9.434;2022-11-04T02:48:06;98208.63;;;11.69;72.20
16664;BME280;8445;51.270;9.434;2022-11-04T02:53:36;98222.53;;;11.71;72.00
16664;BME280;8445;51.270;9.434;2022-11-04T02:56:05;98226.09;;;11.62;71.47
16664;BME280;8445;51.270;9.434;2022-11-04T02:58:42;98224.56;;;11.60;72.37
16664;BME280;8445;51.270;9.434;2022-11-04T03:01:16;98223.06;;;11.57;71.49
16664;BME280;8445;51.270;9.434;2022-11-04T03:03:48;98237.44;;;11.54;71.20
16664;BME280;8445;51.270;9.434;2022-11-04T03:06:20;98232.38;;;11.43;72.86
16664;BME280;8445;51.270;9.434;2022-11-04T03:08:50;98239.88;;;11.48;71.16
16664;BME280;8445;51.270;9.434;2022-11-04T03:11:23;98242.81;;;11.45;71.72
16664;BME280;8445;51.270;9.434;2022-11-04T03:14:05;98249.47;;;11.49;71.48
16664;BME280;8445;51.270;9.434;2022-11-04T03:16:45;98252.34;;;11.37;71.25
16664;BME280;8445;51.270;9.434;2022-11-04T03:19:20;98251.44;;;11.29;72.17
16664;BME280;8445;51.270;9.434;2022-11-04T03:22:03;98243.47;;;11.29;70.78
16664;BME280;8445;51.270;9.434;2022-11-04T03:24:30;98240.16;;;11.26;70.47
16664;BME280;8445;51.270;9.434;2022-11-04T03:29:47;98248.91;;;11.27;70.41
16664;BME280;8445;51.270;9.434;2022-11-04T03:35:00;98244.28;;;11.11;69.65
16664;BME280;8445;51.270;9.434;2022-11-04T03:37:26;98249.47;;;11.03;69.62
16664;BME280;8445;51.270;9.434;2022-11-04T03:39:52;98255.91;;;11.00;69.85
16664;BME280;8445;51.270;9.434;2022-11-04T03:42:19;98258.44;;;10.92;69.50
16664;BME280;8445;51.270;9.434;2022-11-04T03:44:53;98259.63;;;10.79;70.29
16664;BME280;8445;51.270;9.434;2022-11-04T03:47:23;98264.94;;;10.70;70.25
16664;BME280;8445;51.270;9.434;2022-11-04T03:49:54;98280.41;;;10.64;70.56
16664;BME280;8445;51.270;9.434;2022-11-04T03:52:23;98274.03;;;10.57;70.37
16664;BME280;8445;51.270;9.434;2022-11-04T03:54:49;98278.22;;;10.50;70.56
16664;BME280;8445;51.270;9.434;2022-11-04T03:58:15;98275.34;;;10.43;71.69
16664;BME280;8445;51.270;9.434;2022-11-04T04:00:59;98263.38;;;10.39;72.02
16664;BME280;8445;51.270;9.434;2022-11-04T04:03:39;98274.66;;;10.41;70.21
16664;BME280;8445;51.270;9.434;2022-11-04T04:06:15;98280.34;;;10.27;70.05
16664;BME280;8445;51.270;9.434;2022-11-04T04:08:58;98281.75;;;10.21;70.29
16664;BME280;8445;51.270;9.434;2022-11-04T04:11:41;98295.94;;;10.10;70.77
16664;BME280;8445;51.270;9.434;2022-11-04T04:14:30;98297.34;;;9.94;70.77
16664;BME280;8445;51.270;9.434;2022-11-04T04:19:35;98295.94;;;9.71;71.19
16664;BME280;8445;51.270;9.434;2022-11-04T04:22:25;98302.06;;;9.81;71.99
16664;BME280;8445;51.270;9.434;2022-11-04T04:24:57;98300.94;;;9.84;71.41
16664;BME280;8445;51.270;9.434;2022-11-04T04:27:44;98299.56;;;9.89;71.36
16664;BME280;8445;51.270;9.434;2022-11-04T04:30:15;98301.66;;;9.96;71.53
16664;BME280;8445;51.270;9.434;2022-11-04T04:32:49;98318.31;;;10.06;71.18
16664;BME280;8445;51.270;9.434;2022-11-04T04:35:25;98323.75;;;10.14;71.62
16664;BME280;8445;51.270;9.434;2022-11-04T04:38:29;98317.09;;;10.20;72.37
16664;BME280;8445;51.270;9.434;2022-11-04T04:41:25;98331.13;;;10.20;71.92
16664;BME280;8445;51.270;9.434;2022-11-04T04:44:21;98333.47;;;10.23;71.92
16664;BME280;8445;51.270;9.434;2022-11-04T04:47:23;98299.69;;;10.27;71.95
16664;BME280;8445;51.270;9.434;2022-11-04T04:49:59;98308.47;;;10.18;72.64
16664;BME280;8445;51.270;9.434;2022-11-04T04:52:33;98303.44;;;10.05;72.46
16664;BME280;8445;51.270;9.434;2022-11-04T04:54:59;98310.97;;;9.90;71.38
16664;BME280;8445;51.270;9.434;2022-11-04T04:57:25;98310.97;;;9.80;72.01
16664;BME280;8445;51.270;9.434;2022-11-04T04:59:51;98312.06;;;9.68;71.61
16664;BME280;8445;51.270;9.434;2022-11-04T05:02:17;98302.91;;;9.62;71.28
16664;BME280;8445;51.270;9.434;2022-11-04T05:04:43;98305.09;;;9.57;71.75
16664;BME280;8445;51.270;9.434;2022-11-04T05:07:09;98313.44;;;9.52;71.61
16664;BME280;8445;51.270;9.434;2022-11-04T05:09:35;98320.91;;;9.47;71.95
16664;BME280;8445;51.270;9.434;2022-11-04T05:12:01;98318.97;;;9.39;71.54
16664;BME280;8445;51.270;9.434;2022-11-04T05:14:28;98343.41;;;9.31;71.68
16664;BME280;8445;51.270;9.434;2022-11-04T05:16:55;98351.16;;;9.23;71.54
16664;BME280;8445;51.270;9.434;2022-11-04T05:19:20;98353.09;;;9.21;71.87
16664;BME280;8445;51.270;9.434;2022-11-04T05:21:46;98354.44;;;9.15;72.12
16664;BME280;8445;51.270;9.434;2022-11-04T05:24:12;98351.94;;;9.14;72.41
16664;BME280;8445;51.270;9.434;2022-11-04T05:26:38;98346.94;;;9.11;72.45
16664;BME280;8445;51.270;9.434;2022-11-04T05:29:04;98352.22;;;9.11;72.37
16664;BME280;8445;51.270;9.434;2022-11-04T05:31:30;98356.59;;;9.00;72.43
16664;BME280;8445;51.270;9.434;2022-11-04T05:33:55;98372.84;;;8.96;72.54
16664;BME280;8445;51.270;9.434;2022-11-04T05:36:23;98378.03;;;8.86;72.44
16664;BME280;8445;51.270;9.434;2022-11-04T05:38:51;98369.25;;;8.75;72.75
16664;BME280;8445;51.270;9.434;2022-11-04T05:41:20;98389.41;;;8.77;73.38
16664;BME280;8445;51.270;9.434;2022-11-04T05:44:01;98397.47;;;8.85;74.91
16664;BME280;8445;51.270;9.434;2022-11-04T05:46:28;98398.88;;;8.89;73.07
16664;BME280;8445;51.270;9.434;2022-11-04T05:48:55;98403.63;;;8.95;73.07
16664;BME280;8445;51.270;9.434;2022-11-04T05:51:26;98405.75;;;9.01;73.84
16664;BME280;8445;51.270;9.434;2022-11-04T05:53:53;98410.50;;;9.08;72.92
16664;BME280;8445;51.270;9.434;2022-11-04T05:56:19;98425.56;;;9.17;72.85
16664;BME280;8445;51.270;9.434;2022-11-04T05:58:44;98425.75;;;9.25;72.35
16664;BME280;8445;51.270;9.434;2022-11-04T06:01:34;98424.28;;;9.42;73.84
16664;BME280;8445;51.270;9.434;2022-11-04T06:04:03;98423.47;;;9.42;73.11
16664;BME280;8445;51.270;9.434;2022-11-04T06:06:33;98424.97;;;9.44;72.87
16664;BME280;8445;51.270;9.434;2022-11-04T06:09:00;98427.06;;;9.41;72.67
16664;BME280;8445;51.270;9.434;2022-11-04T06:11:28;98421.19;;;9.37;73.69
16664;BME280;8445;51.270;9.434;2022-11-04T06:13:55;98423.47;;;9.42;74.33
16664;BME280;8445;51.270;9.434;2022-11-04T06:16:22;98425.09;;;9.43;73.09
16664;BME280;8445;51.270;9.434;2022-11-04T06:18:49;98422.47;;;9.43;73.25
16664;BME280;8445;51.270;9.434;2022-11-04T06:23:44;98423.72;;;9.39;73.34
16664;BME280;8445;51.270;9.434;2022-11-04T06:26:11;98430.66;;;9.40;73.25
16664;BME280;8445;51.270;9.434;2022-11-04T06:28:38;98428.56;;;9.33;73.44
16664;BME280;8445;51.270;9.434;2022-11-04T06:31:08;98421.16;;;9.27;74.34
16664;BME280;8445;51.270;9.434;2022-11-04T06:33:34;98420.84;;;9.20;73.19
16664;BME280;8445;51.270;9.434;2022-11-04T06:36:03;98408.31;;;9.13;72.80
16664;BME280;8445;51.270;9.434;2022-11-04T06:38:32;98406.91;;;9.09;72.87
16664;BME280;8445;51.270;9.434;2022-11-04T06:40:58;98412.44;;;9.05;72.88
16664;BME280;8445;51.270;9.434;2022-11-04T06:43:24;98410.50;;;9.08;73.08
16664;BME280;8445;51.270;9.434;2022-11-04T06:45:59;98417.19;;;9.12;74.29
16664;BME280;8445;51.270;9.434;2022-11-04T06:48:26;98417.06;;;9.13;73.66
16664;BME280;8445;51.270;9.434;2022-11-04T06:50:56;98424.97;;;9.13;73.41
16664;BME280;8445;51.270;9.434;2022-11-04T06:53:23;98438.31;;;9.12;74.42
16664;BME280;8445;51.270;9.434;2022-11-04T06:55:51;98444.44;;;9.12;73.71
16664;BME280;8445;51.270;9.434;2022-11-04T06:58:17;98449.00;;;9.10;74.24
16664;BME280;8445;51.270;9.434;2022-11-04T07:00:49;98436.78;;;9.09;74.02
16664;BME280;8445;51.270;9.434;2022-11-04T07:03:15;98428.00;;;9.09;73.60
16664;BME280;8445;51.270;9.434;2022-11-04T07:05:41;98448.72;;;9.13;73.75
16664;BME280;8445;51.270;9.434;2022-11-04T07:08:06;98451.94;;;9.17;73.46
16664;BME280;8445;51.270;9.434;2022-11-04T07:10:33;98442.22;;;9.17;73.14
16664;BME280;8445;51.270;9.434;2022-11-04T07:12:59;98456.69;;;9.23;73.87
16664;BME280;8445;51.270;9.434;2022-11-04T07:15:24;98459.78;;;9.28;73.47
16664;BME280;8445;51.270;9.434;2022-11-04T07:17:50;98468.84;;;9.36;73.75
16664;BME280;8445;51.270;9.434;2022-11-04T07:20:16;98463.16;;;9.40;73.15
16664;BME280;8445;51.270;9.434;2022-11-04T07:22:42;98472.78;;;9.51;73.19
16664;BME280;8445;51.270;9.434;2022-11-04T07:25:08;98473.81;;;9.60;73.53
16664;BME280;8445;51.270;9.434;2022-11-04T07:27:34;98475.06;;;9.66;74.08
16664;BME280;8445;51.270;9.434;2022-11-04T07:29:59;98488.75;;;9.81;74.10
16664;BME280;8445;51.270;9.434;2022-11-04T07:32:25;98478.50;;;9.87;73.67
16664;BME280;8445;51.270;9.434;2022-11-04T07:34:51;98491.88;;;9.96;73.40
16664;BME280;8445;51.270;9.434;2022-11-04T07:37:17;98483.94;;;9.96;73.41
16664;BME280;8445;51.270;9.434;2022-11-04T07:39:43;98483.78;;;9.87;73.26
16664;BME280;8445;51.270;9.434;2022-11-04T07:42:09;98483.63;;;9.79;73.15
16664;BME280;8445;51.270;9.434;2022-11-04T07:44:34;98506.25;;;9.72;73.45
16664;BME280;8445;51.270;9.434;2022-11-04T07:47:00;98509.41;;;9.66;73.51
16664;BME280;8445;51.270;9.434;2022-11-04T07:49:26;98504.81;;;9.58;73.81
16664;BME280;8445;51.270;9.434;2022-11-04T07:51:52;98502.72;;;9.61;73.86
16664;BME280;8445;51.270;9.434;2022-11-04T07:54:17;98498.59;;;9.69;73.95
16664;BME280;8445;51.270;9.434;2022-11-04T07:56:43;98502.22;;;9.77;74.00
16664;BME280;8445;51.270;9.434;2022-11-04T07:59:09;98499.63;;;9.87;73.74
16664;BME280;8445;51.270;9.434;2022-11-04T08:01:36;98511.63;;;10.01;74.03
16664;BME280;8445;51.270;9.434;2022-11-04T08:04:01;98509.69;;;10.13;74.15
16664;BME280;8445;51.270;9.434;2022-11-04T08:06:29;98505.28;;;10.23;74.13
16664;BME280;8445;51.270;9.434;2022-11-04T08:08:57;98497.69;;;10.40;74.51
16664;BME280;8445;51.270;9.434;2022-11-04T08:11:24;98507.88;;;10.55;74.26
16664;BME280;8445;51.270;9.434;2022-11-04T08:13:54;98533.59;;;10.72;74.11
16664;BME280;8445;51.270;9.434;2022-11-04T08:16:23;98538.78;;;10.83;74.10
16664;BME280;8445;51.270;9.434;2022-11-04T08:18:51;98543.66;;;10.98;73.97
16664;BME280;8445;51.270;9.434;2022-11-04T08:21:19;98545.19;;;11.10;74.12
16664;BME280;8445;51.270;9.434;2022-11-04T08:23:45;98542.50;;;11.20;73.46
16664;BME280;8445;51.270;9.434;2022-11-04T08:26:17;98535.09;;;11.24;73.58
16664;BME280;8445;51.270;9.434;2022-11-04T08:28:44;98531.66;;;11.23;73.48
16664;BME280;8445;51.270;9.434;2022-11-04T08:33:44;98535.81;;;11.26;73.30
16664;BME280;8445;51.270;9.434;2022-11-04T08:36:23;98543.88;;;11.34;73.35
16664;BME280;8445;51.270;9.434;2022-11-04T08:38:50;98535.25;;;11.32;73.22
16664;BME280;8445;51.270;9.434;2022-11-04T08:41:25;98541.63;;;11.39;72.78
16664;BME280;8445;51.270;9.434;2022-11-04T08:43:51;98541.22;;;11.34;72.95
16664;BME280;8445;51.270;9.434;2022-11-04T08:46:18;98536.78;;;11.25;73.02
16664;BME280;8445;51.270;9.434;2022-11-04T08:48:44;98536.78;;;11.25;73.46
16664;BME280;8445;51.270;9.434;2022-11-04T08:51:18;98528.84;;;11.25;73.18
16664;BME280;8445;51.270;9.434;2022-11-04T08:53:44;98529.81;;;11.24;73.60
16664;BME280;8445;51.270;9.434;2022-11-04T08:56:28;98531.03;;;11.39;73.43
16664;BME280;8445;51.270;9.434;2022-11-04T08:59:01;98540.81;;;11.39;73.74
16664;BME280;8445;51.270;9.434;2022-11-04T09:01:33;98540.66;;;11.40;73.57
16664;BME280;8445;51.270;9.434;2022-11-04T09:03:59;98539.13;;;11.48;74.08
16664;BME280;8445;51.270;9.434;2022-11-04T09:06:30;98542.00;;;11.54;73.97
16664;BME280;8445;51.270;9.434;2022-11-04T09:08:57;98542.13;;;11.73;74.69
16664;BME280;8445;51.270;9.434;2022-11-04T09:11:30;98540.66;;;11.88;73.58
16664;BME280;8445;51.270;9.434;2022-11-04T09:13:59;98541.06;;;12.03;73.63
16664;BME280;8445;51.270;9.434;2022-11-04T09:16:28;98530.09;;;12.16;73.63
16664;BME280;8445;51.270;9.434;2022-11-04T09:18:56;98532.09;;;12.32;73.03
16664;BME280;8445;51.270;9.434;2022-11-04T09:21:24;98530.66;;;12.38;72.52
16664;BME280;8445;51.270;9.434;2022-11-04T09:23:50;98525.00;;;12.51;73.06
16664;BME280;8445;51.270;9.434;2022-11-04T09:26:17;98524.09;;;12.60;72.61
16664;BME280;8445;51.270;9.434;2022-11-04T09:28:43;98522.44;;;12.59;72.14
16664;BME280;8445;51.270;9.434;2022-11-04T09:31:16;98520.50;;;12.51;70.99
16664;BME280;8445;51.270;9.434;2022-11-04T09:33:43;98515.91;;;12.53;72.51
16664;BME280;8445;51.270;9.434;2022-11-04T09:36:10;98519.09;;;12.57;71.92
16664;BME280;8445;51.270;9.434;2022-11-04T09:38:38;98510.22;;;12.48;71.93
16664;BME280;8445;51.270;9.434;2022-11-04T09:47:16;98533.06;;;12.59;71.95
16664;BME280;8445;51.270;9.434;2022-11-04T09:49:45;98529.25;;;12.62;71.92
16664;BME280;8445;51.270;9.434;2022-11-04T09:52:20;98536.31;;;12.71;71.11
16664;BME280;8445;51.270;9.434;2022-11-04T09:55:00;98546.31;;;12.77;70.35
16664;BME280;8445;51.270;9.434;2022-11-04T09:57:29;98552.81;;;12.65;71.95
16664;BME280;8445;51.270;9.434;2022-11-04T09:59:56;98563.34;;;12.56;72.09
16664;BME280;8445;51.270;9.434;2022-11-04T10:05:35;98559.03;;;12.55;69.61
16664;BME280;8445;51.270;9.434;2022-11-04T10:14:23;98556.72;;;12.24;71.36
16664;BME280;8445;51.270;9.434;2022-11-04T10:23:36;98560.75;;;12.28;70.19
16664;BME280;8445;51.270;9.434;2022-11-04T10:26:18;98554.91;;;12.43;70.59
16664;BME280;8445;51.270;9.434;2022-11-04T10:29:03;98547.03;;;12.51;69.65
16664;BME280;8445;51.270;9.434;2022-11-04T10:31:34;98548.31;;;12.47;69.93
16664;BME280;8445;51.270;9.434;2022-11-04T10:34:25;98544.38;;;12.51;69.52
16664;BME280;8445;51.270;9.434;2022-11-04T10:36:55;98543.91;;;12.38;70.65
16664;BME280;8445;51.270;9.434;2022-11-04T10:39:43;98547.94;;;12.42;70.42
16664;BME280;8445;51.270;9.434;2022-11-04T10:42:16;98540.66;;;12.44;71.12
16664;BME280;8445;51.270;9.434;2022-11-04T10:44:50;98536.22;;;12.44;70.05
16664;BME280;8445;51.270;9.434;2022-11-04T10:47:30;98522.66;;;12.66;72.00
16664;BME280;8445;51.270;9.434;2022-11-04T10:52:43;98528.13;;;12.82;69.97
16664;BME280;8445;51.270;9.434;2022-11-04T10:55:29;98528.88;;;12.93;69.56
16664;BME280;8445;51.270;9.434;2022-11-04T10:58:00;98522.50;;;12.85;69.71
16664;BME280;8445;51.270;9.434;2022-11-04T11:00:38;98518.94;;;12.95;69.75
16664;BME280;8445;51.270;9.434;2022-11-04T11:03:41;98523.22;;;12.96;68.33
16664;BME280;8445;51.270;9.434;2022-11-04T11:06:13;98524.91;;;12.97;69.42
16664;BME280;8445;51.270;9.434;2022-11-04T11:08:43;98525.38;;;12.92;69.17
16664;BME280;8445;51.270;9.434;2022-11-04T11:11:09;98522.88;;;12.90;69.69
16664;BME280;8445;51.270;9.434;2022-11-04T11:13:40;98526.06;;;12.94;69.50
16664;BME280;8445;51.270;9.434;2022-11-04T11:16:26;98528.53;;;12.96;68.84
16664;BME280;8445;51.270;9.434;2022-11-04T11:19:23;98526.53;;;12.89;66.68
16664;BME280;8445;51.270;9.434;2022-11-04T11:21:55;98528.88;;;12.93;68.41
16664;BME280;8445;51.270;9.434;2022-11-04T11:24:28;98532.34;;;12.93;68.99
16664;BME280;8445;51.270;9.434;2022-11-04T11:27:09;98533.19;;;12.94;68.74
16664;BME280;8445;51.270;9.434;2022-11-04T11:29:39;98535.09;;;12.83;69.36
16664;BME280;8445;51.270;9.434;2022-11-04T11:32:32;98521.81;;;12.83;68.86
16664;BME280;8445;51.270;9.434;2022-11-04T11:35:02;98521.19;;;12.71;69.29
16664;BME280;8445;51.270;9.434;2022-11-04T11:37:29;98523.03;;;12.71;69.37
16664;BME280;8445;51.270;9.434;2022-11-04T11:39:56;98518.72;;;12.70;69.56
16664;BME280;8445;51.270;9.434;2022-11-04T11:42:23;98520.59;;;12.78;69.85
16664;BME280;8445;51.270;9.434;2022-11-04T11:44:57;98511.03;;;12.85;69.48
16664;BME280;8445;51.270;9.434;2022-11-04T11:50:19;98514.53;;;13.03;68.40
16664;BME280;8445;51.270;9.434;2022-11-04T11:52:50;98523.16;;;13.05;69.30
16664;BME280;8445;51.270;9.434;2022-11-04T11:55:36;98516.16;;;13.23;67.44
16664;BME280;8445;51.270;9.434;2022-11-04T11:58:34;98505.19;;;13.44;66.61
16664;BME280;8445;51.270;9.434;2022-11-04T12:01:35;98508.09;;;13.59;66.85
16664;BME280;8445;51.270;9.434;2022-11-04T12:04:06;98505.13;;;13.62;68.08
16664;BME280;8445;51.270;9.434;2022-11-04T12:10:55;98514.00;;;13.71;65.89
16664;BME280;8445;51.270;9.434;2022-11-04T12:13:40;98512.28;;;13.61;65.53
16664;BME280;8445;51.270;9.434;2022-11-04T12:16:41;98519.44;;;13.69;66.20
16664;BME280;8445;51.270;9.434;2022-11-04T12:19:53;98503.09;;;13.82;65.45
16664;BME280;8445;51.270;9.434;2022-11-04T12:22:23;98508.91;;;13.86;67.60
16664;BME280;8445;51.270;9.434;2022-11-04T12:25:34;98512.34;;;14.21;67.38
16664;BME280;8445;51.270;9.434;2022-11-04T12:33:49;98518.47;;;14.64;60.14
16664;BME280;8445;51.270;9.434;2022-11-04T12:39:45;98527.13;;;14.83;59.65
16664;BME280;8445;51.270;9.434;2022-11-04T12:42:48;98529.81;;;14.91;60.36
16664;BME280;8445;51.270;9.434;2022-11-04T12:47:49;98529.13;;;14.81;67.17
16664;BME280;8445;51.270;9.434;2022-11-04T12:56:01;98535.41;;;14.63;66.64
16664;BME280;8445;51.270;9.434;2022-11-04T13:01:21;98517.13;;;14.60;57.34
16664;BME280;8445;51.270;9.434;2022-11-04T13:04:05;98527.44;;;14.63;61.51
16664;BME280;8445;51.270;9.434;2022-11-04T13:06:50;98526.09;;;14.59;60.90
16664;BME280;8445;51.270;9.434;2022-11-04T13:09:36;98525.09;;;14.60;61.39
16664;BME280;8445;51.270;9.434;2022-11-04T13:12:16;98529.97;;;14.73;61.41
16664;BME280;8445;51.270;9.434;2022-11-04T13:15:38;98527.78;;;14.77;62.10
16664;BME280;8445;51.270;9.434;2022-11-04T13:17:42;98529.47;;;14.78;64.68
16664;BME280;8445;51.270;9.434;2022-11-04T13:22:42;98531.97;;;14.79;65.67
16664;BME280;8445;51.270;9.434;2022-11-04T13:25:41;98542.63;;;14.88;61.61
16664;BME280;8445;51.270;9.434;2022-11-04T13:28:17;98548.13;;;15.03;63.05
16664;BME280;8445;51.270;9.434;2022-11-04T13:36:36;98564.13;;;15.27;62.00
16664;BME280;8445;51.270;9.434;2022-11-04T13:42:23;98558.78;;;15.27;61.55
16664;BME280;8445;51.270;9.434;2022-11-04T13:45:09;98565.28;;;15.33;65.07
16664;BME280;8445;51.270;9.434;2022-11-04T13:47:52;98569.09;;;15.39;63.02
16664;BME280;8445;51.270;9.434;2022-11-04T13:50:39;98570.59;;;15.50;63.18
16664;BME280;8445;51.270;9.434;2022-11-04T13:53:10;98579.09;;;15.45;65.25
16664;BME280;8445;51.270;9.434;2022-11-04T13:55:50;98579.41;;;15.59;63.52
16664;BME280;8445;51.270;9.434;2022-11-04T13:58:24;98577.06;;;15.55;64.04
16664;BME280;8445;51.270;9.434;2022-11-04T14:07:04;98595.22;;;16.73;nan
16664;BME280;8445;51.270;9.434;2022-11-04T14:14:54;98592.00;;;16.06;nan
16664;BME280;8445;51.270;9.434;2022-11-04T14:22:59;98592.91;;;15.40;nan
16664;BME280;8445;51.270;9.434;2022-11-04T14:25:34;98605.03;;;14.85;nan
16664;BME280;8445;51.270;9.434;2022-11-04T14:30:51;98617.31;;;14.70;nan
16664;BME280;8445;51.270;9.434;2022-11-04T14:33:34;98617.31;;;14.70;nan
16664;BME280;8445;51.270;9.434;2022-11-04T14:42:01;98639.00;;;18.18;nan
16664;BME280;8445;51.270;9.434;2022-11-04T14:44:46;98649.00;;;15.06;56.70
16664;BME280;8445;51.270;9.434;2022-11-04T14:50:13;98635.38;;;14.58;59.08
16664;BME280;8445;51.270;9.434;2022-11-04T14:55:15;98647.25;;;14.02;60.25
16664;BME280;8445;51.270;9.434;2022-11-04T14:57:59;98666.94;;;13.91;60.86
16664;BME280;8445;51.270;9.434;2022-11-04T15:05:59;98666.16;;;13.55;61.46
16664;BME280;8445;51.270;9.434;2022-11-04T15:11:16;98664.41;;;13.27;62.47
16664;BME280;8445;51.270;9.434;2022-11-04T15:13:44;98676.09;;;13.16;62.57
16664;BME280;8445;51.270;9.434;2022-11-04T15:16:27;98666.84;;;13.20;62.54
16664;BME280;8445;51.270;9.434;2022-11-04T15:18:57;98673.75;;;13.13;62.50
16664;BME280;8445;51.270;9.434;2022-11-04T15:21:24;98670.41;;;13.11;62.25
16664;BME280;8445;51.270;9.434;2022-11-04T15:23:53;98676.31;;;13.05;62.32
16664;BME280;8445;51.270;9.434;2022-11-04T15:26:30;98676.59;;;13.02;62.60
16664;BME280;8445;51.270;9.434;2022-11-04T15:29:07;98679.19;;;12.94;62.92
16664;BME280;8445;51.270;9.434;2022-11-04T15:31:37;98680.91;;;12.85;62.75
16664;BME280;8445;51.270;9.434;2022-11-04T15:34:05;98686.00;;;12.78;62.97
16664;BME280;8445;51.270;9.434;2022-11-04T15:36:41;98686.00;;;12.78;63.18
16664;BME280;8445;51.270;9.434;2022-11-04T15:39:13;98683.22;;;12.70;63.12
16664;BME280;8445;51.270;9.434;2022-11-04T15:41:42;98679.88;;;12.68;62.92
16664;BME280;8445;51.270;9.434;2022-11-04T15:44:32;98684.97;;;12.51;63.30
16664;BME280;8445;51.270;9.434;2022-11-04T15:47:02;98681.75;;;12.57;62.95
16664;BME280;8445;51.270;9.434;2022-11-04T15:49:32;98691.66;;;12.55;62.94
16664;BME280;8445;51.270;9.434;2022-11-04T15:52:11;98692.53;;;12.56;63.52
16664;BME280;8445;51.270;9.434;2022-11-04T15:54:46;98690.44;;;12.50;63.19
16664;BME280;8445;51.270;9.434;2022-11-04T15:57:37;98696.97;;;12.55;63.52
16664;BME280;8445;51.270;9.434;2022-11-04T16:02:58;98705.13;;;12.44;63.35
16664;BME280;8445;51.270;9.434;2022-11-04T16:05:34;98699.84;;;12.34;63.72
16664;BME280;8445;51.270;9.434;2022-11-04T16:08:27;98708.84;;;12.23;65.36
16664;BME280;8445;51.270;9.434;2022-11-04T16:11:15;98719.56;;;12.22;64.76